Time;durP1;ratioP1;P1;durP2;ratioP2;P2;SDS_P1;SDS_P2;PMS_P1;PMS_P2;Temp;Humidity;BMP_temperature;BMP_pressure;BME280_temperature;BME280_humidity;BME280_pressure;Samples;Min_cycle;Max_cycle;Signal;HPM_P1;HPM_P2
2021/10/09 00:01:50;;;;;;;29.08;18.88;;;7.70;99.90;;;;;;5016852;28;20022;-76
2021/10/09 00:04:16;;;;;;;37.45;19.67;;;7.70;99.90;;;;;;5014387;28;20052;-77
2021/10/09 00:06:42;;;;;;;27.17;17.00;;;7.70;99.90;;;;;;5017910;28;20109;-77
2021/10/09 00:09:09;;;;;;;29.33;17.13;;;7.70;99.90;;;;;;5021156;28;20029;-77
2021/10/09 00:11:39;;;;;;;33.30;19.95;;;7.70;99.90;;;;;;5000010;28;20108;-76
2021/10/09 00:14:07;;;;;;;28.25;18.13;;;7.70;99.90;;;;;;5022214;28;20029;-77
2021/10/09 00:16:33;;;;;;;29.83;18.25;;;7.60;99.90;;;;;;5019085;28;20033;-77
2021/10/09 00:18:59;;;;;;;31.25;19.00;;;7.60;99.90;;;;;;5029827;28;20096;-77
2021/10/09 00:21:24;;;;;;;32.38;19.02;;;7.60;99.90;;;;;;5021016;28;20492;-77
2021/10/09 00:23:50;;;;;;;24.60;16.75;;;7.60;99.90;;;;;;5048193;28;20037;-75
2021/10/09 00:26:17;;;;;;;26.30;16.98;;;7.50;99.90;;;;;;5054201;28;20017;-77
2021/10/09 00:28:43;;;;;;;26.27;16.48;;;7.50;99.90;;;;;;5035870;28;20392;-77
2021/10/09 00:31:09;;;;;;;23.05;15.82;;;7.50;99.90;;;;;;5020495;28;20024;-77
2021/10/09 00:33:35;;;;;;;27.02;16.92;;;7.50;99.90;;;;;;5021054;28;20398;-77
2021/10/09 00:36:00;;;;;;;29.88;18.17;;;7.50;99.90;;;;;;5015200;28;20025;-77
2021/10/09 00:38:26;;;;;;;29.88;19.50;;;7.50;99.90;;;;;;5019892;28;20123;-77
2021/10/09 00:40:52;;;;;;;28.38;19.15;;;7.50;99.90;;;;;;5026381;28;20072;-77
2021/10/09 00:43:18;;;;;;;29.58;17.77;;;7.50;99.90;;;;;;5016756;28;20026;-77
2021/10/09 00:45:53;;;;;;;33.70;18.08;;;7.40;99.90;;;;;;5017354;28;20026;-77
2021/10/09 00:48:19;;;;;;;28.00;17.65;;;7.40;99.90;;;;;;5026263;28;20021;-77
2021/10/09 00:50:45;;;;;;;27.83;17.10;;;7.40;99.90;;;;;;5016505;28;20033;-77
2021/10/09 00:53:12;;;;;;;28.55;18.25;;;7.40;99.90;;;;;;5024621;28;20117;-77
2021/10/09 00:55:40;;;;;;;28.35;16.65;;;7.40;99.90;;;;;;5023285;28;20022;-77
2021/10/09 00:58:07;;;;;;;20.95;14.93;;;7.30;99.90;;;;;;5022110;28;20030;-77
2021/10/09 01:00:33;;;;;;;28.70;17.65;;;7.30;99.90;;;;;;5026320;28;20034;-77
2021/10/09 01:02:59;;;;;;;29.58;18.70;;;7.20;99.90;;;;;;5003910;28;20454;-77
2021/10/09 01:05:26;;;;;;;27.98;18.35;;;7.30;99.90;;;;;;5022511;28;20073;-77
2021/10/09 01:07:52;;;;;;;30.10;18.77;;;7.30;99.90;;;;;;5019521;28;20105;-76
2021/10/09 01:10:18;;;;;;;27.50;18.05;;;7.30;99.90;;;;;;5032194;23;20072;-79
2021/10/09 01:12:43;;;;;;;27.42;17.77;;;7.30;99.90;;;;;;5014746;28;20045;-79
2021/10/09 01:15:21;;;;;;;31.40;18.65;;;7.30;99.90;;;;;;5017207;28;20018;-80
2021/10/09 01:17:47;;;;;;;27.25;17.75;;;7.30;99.90;;;;;;5018468;28;20307;-80
2021/10/09 01:20:14;;;;;;;31.00;18.52;;;7.30;99.90;;;;;;5028711;28;20029;-79
2021/10/09 01:22:40;;;;;;;32.10;18.52;;;7.30;99.90;;;;;;5040124;28;20385;-79
2021/10/09 01:25:07;;;;;;;28.90;17.55;;;7.30;99.90;;;;;;5043048;28;20033;-78
2021/10/09 01:27:35;;;;;;;25.45;16.90;;;7.30;99.90;;;;;;5031783;28;20025;-78
2021/10/09 01:30:01;;;;;;;31.52;19.13;;;7.20;99.90;;;;;;5042293;28;20038;-79
2021/10/09 01:32:27;;;;;;;28.80;17.38;;;7.20;99.90;;;;;;5020256;28;20081;-79
2021/10/09 01:34:52;;;;;;;27.25;18.17;;;7.20;99.90;;;;;;5018522;28;20076;-80
2021/10/09 01:37:18;;;;;;;27.10;17.85;;;7.20;99.90;;;;;;5019675;28;20025;-79
2021/10/09 01:39:47;;;;;;;26.95;18.15;;;7.20;99.90;;;;;;5019499;28;20104;-79
2021/10/09 01:42:13;;;;;;;30.00;18.88;;;7.20;99.90;;;;;;5019992;28;20049;-80
2021/10/09 01:44:39;;;;;;;32.53;18.60;;;7.20;99.90;;;;;;5019886;28;20113;-79
2021/10/09 01:47:05;;;;;;;32.92;20.23;;;7.20;99.90;;;;;;5017791;28;20576;-79
2021/10/09 01:49:32;;;;;;;28.45;19.23;;;7.20;99.90;;;;;;5022657;28;20029;-79
2021/10/09 01:51:58;;;;;;;25.52;16.90;;;7.20;99.90;;;;;;5026067;28;20034;-79
2021/10/09 01:54:24;;;;;;;27.45;18.33;;;7.10;99.90;;;;;;5000853;28;20028;-80
2021/10/09 01:56:50;;;;;;;33.60;20.52;;;7.10;99.90;;;;;;5018460;28;20030;-79
2021/10/09 01:59:16;;;;;;;28.77;18.88;;;7.10;99.90;;;;;;5019219;28;20022;-80
2021/10/09 02:01:41;;;;;;;32.10;19.67;;;7.10;99.90;;;;;;5019165;28;20486;-79
2021/10/09 02:04:07;;;;;;;27.95;18.27;;;7.10;99.90;;;;;;5019171;28;20387;-79
2021/10/09 02:06:33;;;;;;;32.95;18.58;;;7.10;99.90;;;;;;5000537;28;20025;-79
2021/10/09 02:08:59;;;;;;;34.83;21.33;;;7.00;99.90;;;;;;5018411;28;20111;-80
2021/10/09 02:11:37;;;;;;;31.10;20.23;;;7.00;99.90;;;;;;5018381;28;20026;-80
2021/10/09 02:24:52;;;;;;;35.63;21.52;;;7.00;99.90;;;;;;5021595;28;20088;-79
2021/10/09 02:27:08;;;;;;;35.42;22.02;;;7.00;99.90;;;;;;5016676;28;20041;-78
2021/10/09 02:29:33;;;;;;;36.28;21.52;;;7.00;99.90;;;;;;4999979;28;20025;-79
2021/10/09 02:31:59;;;;;;;33.72;20.77;;;7.00;99.90;;;;;;5017151;28;20489;-79
2021/10/09 02:34:25;;;;;;;34.55;20.42;;;6.90;99.90;;;;;;5017533;28;20372;-80
2021/10/09 02:36:51;;;;;;;30.17;18.73;;;6.90;99.90;;;;;;5018081;28;20029;-80
2021/10/09 02:39:16;;;;;;;32.10;18.83;;;6.90;99.90;;;;;;5002801;28;20018;-78
2021/10/09 02:41:42;;;;;;;25.95;18.25;;;6.90;99.90;;;;;;5000566;28;20062;-79
2021/10/09 02:44:08;;;;;;;29.75;19.30;;;6.90;99.90;;;;;;5018033;28;20022;-79
2021/10/09 02:46:34;;;;;;;31.30;21.20;;;6.90;99.90;;;;;;5017482;28;20395;-79
2021/10/09 02:48:59;;;;;;;33.88;21.02;;;6.90;99.90;;;;;;5027188;28;20055;-79
2021/10/09 02:51:25;;;;;;;38.22;21.38;;;6.90;99.90;;;;;;5023513;28;20133;-79
2021/10/09 02:53:51;;;;;;;26.75;18.75;;;6.90;99.90;;;;;;5017473;28;20025;-78
2021/10/09 02:56:16;;;;;;;29.70;19.17;;;6.80;99.90;;;;;;5017479;28;20034;-80
2021/10/09 02:58:42;;;;;;;34.08;20.55;;;6.90;99.90;;;;;;5017893;28;20046;-79
2021/10/09 03:01:08;;;;;;;29.05;17.65;;;6.80;99.90;;;;;;5017216;28;22172;-79
2021/10/09 03:03:33;;;;;;;27.67;18.85;;;6.80;99.90;;;;;;4996162;28;20030;-79
2021/10/09 03:05:59;;;;;;;28.00;18.42;;;6.80;99.90;;;;;;4998637;28;20070;-78
2021/10/09 03:08:25;;;;;;;32.85;21.17;;;6.80;99.90;;;;;;4997345;28;20038;-79
2021/10/09 03:10:51;;;;;;;37.13;20.88;;;6.80;99.90;;;;;;4997753;28;20030;-80
2021/10/09 03:13:16;;;;;;;31.23;19.52;;;6.80;99.90;;;;;;5017001;28;20034;-80
2021/10/09 03:15:42;;;;;;;37.33;21.52;;;6.70;99.90;;;;;;5017809;28;20018;-79
2021/10/09 03:18:08;;;;;;;33.53;22.30;;;6.70;99.90;;;;;;5019981;28;20511;-80
2021/10/09 03:20:36;;;;;;;28.17;18.85;;;6.80;99.90;;;;;;5021513;28;20050;-79
2021/10/09 03:23:02;;;;;;;29.83;18.85;;;6.80;99.90;;;;;;5018997;28;20021;-80
2021/10/09 03:25:27;;;;;;;28.90;18.42;;;6.70;99.90;;;;;;4999661;28;20398;-80
2021/10/09 03:27:53;;;;;;;32.15;20.50;;;6.70;99.90;;;;;;5017385;28;20021;-79
2021/10/09 03:30:21;;;;;;;33.03;19.67;;;6.70;99.90;;;;;;5017230;28;20049;-79
2021/10/09 03:32:47;;;;;;;28.48;19.00;;;6.70;99.90;;;;;;5017040;28;20498;-79
2021/10/09 03:35:13;;;;;;;26.20;17.88;;;6.70;99.90;;;;;;5000197;28;20030;-79
2021/10/09 03:37:39;;;;;;;23.95;16.65;;;6.70;99.90;;;;;;5018916;28;20033;-80
2021/10/09 03:40:08;;;;;;;25.15;16.90;;;6.70;99.90;;;;;;5020172;28;20006;-80
2021/10/09 03:45:33;;;;;;;33.70;21.55;;;6.70;99.90;;;;;;5004120;28;20145;-80
2021/10/09 03:53:41;;;;;;;38.15;22.63;;;6.60;99.90;;;;;;5044418;28;20113;-79
2021/10/09 03:56:07;;;;;;;36.75;22.45;;;6.60;99.90;;;;;;5036095;28;20025;-79
2021/10/09 03:58:32;;;;;;;35.85;21.83;;;6.60;99.90;;;;;;5034819;28;20089;-79
2021/10/09 04:00:58;;;;;;;31.90;21.27;;;6.60;99.90;;;;;;5035320;28;20026;-80
2021/10/09 04:03:24;;;;;;;32.00;19.55;;;6.50;99.90;;;;;;5022297;28;20041;-79
2021/10/09 04:05:50;;;;;;;30.17;19.15;;;6.50;99.90;;;;;;5004087;28;20109;-79
2021/10/09 04:08:15;;;;;;;38.60;23.63;;;6.50;99.90;;;;;;5029741;28;20103;-79
2021/10/09 04:10:41;;;;;;;38.95;22.65;;;6.50;99.90;;;;;;5027553;28;20038;-79
2021/10/09 04:13:07;;;;;;;35.15;22.40;;;6.50;99.90;;;;;;5011690;28;20325;-81
2021/10/09 04:15:33;;;;;;;31.23;19.52;;;6.50;99.90;;;;;;5024083;28;20041;-79
2021/10/09 04:17:58;;;;;;;29.10;19.05;;;6.50;99.90;;;;;;5024422;28;20034;-79
2021/10/09 04:20:24;;;;;;;27.40;17.77;;;6.40;99.90;;;;;;5037133;28;20026;-80
2021/10/09 04:22:50;;;;;;;29.08;17.58;;;6.40;99.90;;;;;;5052825;28;20017;-78
2021/10/09 04:25:16;;;;;;;24.95;16.02;;;6.50;99.90;;;;;;5019672;28;20459;-79
2021/10/09 04:27:42;;;;;;;25.15;16.67;;;6.40;99.90;;;;;;5019595;28;20041;-79
2021/10/09 04:30:09;;;;;;;29.42;17.67;;;6.40;99.90;;;;;;5020816;28;20088;-79
2021/10/09 04:32:35;;;;;;;28.77;17.23;;;6.40;99.90;;;;;;5011263;28;20030;-79
2021/10/09 04:35:02;;;;;;;27.52;17.60;;;6.40;99.90;;;;;;5025063;28;20084;-79
2021/10/09 04:37:28;;;;;;;27.80;18.70;;;6.40;99.90;;;;;;5037619;28;20025;-79
2021/10/09 04:39:54;;;;;;;28.92;18.70;;;6.50;99.90;;;;;;5024828;28;20030;-80
2021/10/09 04:42:20;;;;;;;29.98;19.33;;;6.50;99.90;;;;;;5005667;28;20025;-79
2021/10/09 04:44:45;;;;;;;29.55;19.58;;;6.50;99.90;;;;;;5022041;28;20026;-79
2021/10/09 04:47:11;;;;;;;36.58;23.02;;;6.60;99.90;;;;;;5004334;28;20188;-79
2021/10/09 04:49:37;;;;;;;36.25;22.40;;;6.70;99.90;;;;;;5014009;28;20113;-80
2021/10/09 04:52:03;;;;;;;34.55;21.98;;;6.70;99.90;;;;;;5041632;28;20076;-80
2021/10/09 04:54:28;;;;;;;34.95;21.10;;;6.70;99.90;;;;;;5041618;28;20029;-80
2021/10/09 04:56:54;;;;;;;32.72;21.65;;;6.80;99.90;;;;;;5026427;28;20030;-80
2021/10/09 04:59:20;;;;;;;38.25;23.45;;;6.80;99.90;;;;;;5031322;28;20026;-80
2021/10/09 05:01:46;;;;;;;40.85;22.02;;;6.90;99.90;;;;;;5026501;28;20030;-80
2021/10/09 05:04:11;;;;;;;31.65;20.88;;;6.90;99.90;;;;;;5021158;28;20026;-79
2021/10/09 05:06:37;;;;;;;31.30;19.27;;;7.00;99.90;;;;;;5022676;28;20034;-79
2021/10/09 05:09:03;;;;;;;33.70;22.15;;;7.00;99.90;;;;;;5020841;28;20481;-80
2021/10/09 05:11:29;;;;;;;33.78;20.38;;;7.00;99.90;;;;;;5020364;28;20022;-79
2021/10/09 05:13:55;;;;;;;28.88;19.98;;;7.10;99.90;;;;;;5024001;28;20363;-80
2021/10/09 05:16:21;;;;;;;26.40;18.27;;;7.10;99.90;;;;;;5001137;28;20053;-79
2021/10/09 05:18:46;;;;;;;24.60;17.92;;;7.10;99.90;;;;;;5024698;28;20022;-78
2021/10/09 05:21:12;;;;;;;40.17;23.58;;;7.10;99.90;;;;;;5028274;28;20461;-78
2021/10/09 05:23:38;;;;;;;42.25;24.38;;;7.10;99.90;;;;;;5043093;28;20423;-77
2021/10/09 05:26:05;;;;;;;35.28;21.88;;;7.10;99.90;;;;;;5038630;28;20025;-78
2021/10/09 05:31:08;;;;;;;38.33;24.52;;;7.20;99.90;;;;;;5019543;28;20033;-79
2021/10/09 05:35:59;;;;;;;36.53;23.70;;;7.20;99.90;;;;;;5017862;28;20034;-76
2021/10/09 05:38:25;;;;;;;45.03;24.80;;;7.20;99.90;;;;;;5018999;28;20057;-79
2021/10/09 05:40:51;;;;;;;42.10;25.90;;;7.30;99.90;;;;;;5016387;28;20032;-78
2021/10/09 05:43:19;;;;;;;40.42;24.20;;;7.30;99.90;;;;;;5017842;28;20018;-78
2021/10/09 05:45:45;;;;;;;40.80;23.70;;;7.30;99.90;;;;;;4997989;28;20023;-79
2021/10/09 05:48:11;;;;;;;37.88;23.00;;;7.30;99.90;;;;;;5011902;28;20034;-77
2021/10/09 05:53:31;;;;;;;28.95;20.38;;;7.20;99.90;;;;;;5022778;28;20026;-78
2021/10/09 05:56:09;;;;;;;39.63;23.55;;;7.30;99.90;;;;;;5019961;28;20026;-79
2021/10/09 05:58:51;;;;;;;40.08;25.15;;;7.40;99.90;;;;;;5020203;28;20037;-79
2021/10/09 06:48:13;;;;;;;50.15;29.08;;;7.80;99.90;;;;;;5018534;28;20076;-80
2021/10/09 07:01:17;;;;;;;47.88;29.17;;;8.00;99.90;;;;;;5021093;28;20140;-82
2021/10/09 07:03:42;;;;;;;44.80;28.30;;;8.10;99.90;;;;;;5000503;28;20037;-78
2021/10/09 07:06:09;;;;;;;44.33;25.33;;;8.10;99.90;;;;;;5020361;28;20033;-80
2021/10/09 07:08:35;;;;;;;43.15;27.05;;;8.10;99.90;;;;;;5042844;28;20021;-78
2021/10/09 07:11:03;;;;;;;39.25;24.60;;;8.30;99.90;;;;;;5066131;22;20042;-79
2021/10/09 07:13:28;;;;;;;32.90;23.42;;;8.50;99.90;;;;;;5022494;28;20022;-79
2021/10/09 07:15:54;;;;;;;41.55;24.77;;;8.60;99.90;;;;;;5023551;28;20052;-78
2021/10/09 07:18:20;;;;;;;36.65;24.67;;;8.80;99.90;;;;;;5030757;28;20377;-79
2021/10/09 07:21:21;;;;;;;43.28;27.08;;;8.80;99.90;;;;;;5026089;28;20573;-80
2021/10/09 07:23:46;;;;;;;47.10;25.10;;;8.80;99.90;;;;;;5006139;28;20061;-77
2021/10/09 07:26:12;;;;;;;37.45;25.27;;;8.60;99.90;;;;;;5031451;28;20024;-78
2021/10/09 07:28:38;;;;;;;43.85;25.92;;;8.70;99.90;;;;;;5029361;28;20067;-79
2021/10/09 07:31:03;;;;;;;31.55;20.40;;;8.70;99.90;;;;;;5023269;28;20071;-78
2021/10/09 07:33:29;;;;;;;32.30;19.92;;;8.80;99.90;;;;;;5018925;28;20018;-77
2021/10/09 07:35:55;;;;;;;28.42;19.38;;;8.90;99.90;;;;;;5018861;28;20119;-78
2021/10/09 07:38:21;;;;;;;32.95;20.52;;;9.00;99.90;;;;;;5017995;28;20052;-78
2021/10/09 07:40:46;;;;;;;35.90;22.98;;;9.00;99.90;;;;;;5017506;28;20082;-78
2021/10/09 07:43:12;;;;;;;34.60;22.73;;;9.10;99.90;;;;;;5021727;28;20033;-78
2021/10/09 07:45:38;;;;;;;32.80;21.17;;;9.10;99.90;;;;;;5032143;28;20017;-78
2021/10/09 07:48:04;;;;;;;36.22;22.67;;;9.20;99.90;;;;;;5013515;28;20022;-78
2021/10/09 07:50:30;;;;;;;35.60;24.70;;;9.20;99.90;;;;;;5025044;28;20029;-78
2021/10/09 07:52:55;;;;;;;41.03;23.75;;;9.10;99.90;;;;;;5020610;28;20360;-79
2021/10/09 07:55:21;;;;;;;39.03;24.67;;;9.10;99.90;;;;;;5018737;28;20133;-78
2021/10/09 07:57:47;;;;;;;42.22;24.90;;;9.00;99.90;;;;;;5018225;28;20041;-78
2021/10/09 08:00:13;;;;;;;40.55;24.30;;;9.00;99.90;;;;;;5019030;28;20022;-77
2021/10/09 08:02:46;;;;;;;35.05;22.92;;;8.90;99.90;;;;;;5022190;28;20030;-77
2021/10/09 08:05:12;;;;;;;40.03;24.85;;;8.90;99.90;;;;;;5025419;28;20429;-79
2021/10/09 08:07:38;;;;;;;41.72;25.50;;;8.90;99.90;;;;;;5017650;28;20095;-77
2021/10/09 08:10:04;;;;;;;38.45;23.83;;;8.90;99.90;;;;;;5017883;28;20120;-78
2021/10/09 08:12:29;;;;;;;44.75;23.98;;;8.80;99.90;;;;;;5016791;28;20025;-78
2021/10/09 08:14:55;;;;;;;37.17;23.45;;;8.90;99.90;;;;;;4998953;28;20447;-78
2021/10/09 08:17:21;;;;;;;47.08;25.15;;;9.00;99.90;;;;;;5017442;28;20030;-78
2021/10/09 08:19:47;;;;;;;40.35;24.90;;;9.10;99.90;;;;;;5028093;28;20029;-78
2021/10/09 08:22:12;;;;;;;42.28;24.55;;;9.10;99.90;;;;;;5037808;28;20478;-78
2021/10/09 08:25:43;;;;;;;42.15;23.50;;;9.10;99.90;;;;;;5034452;28;20029;-78
2021/10/09 08:41:06;;;;;;;38.33;22.58;;;9.10;99.90;;;;;;5033742;28;20041;-76
2021/10/09 08:43:32;;;;;;;34.92;22.33;;;9.30;99.90;;;;;;5033202;28;20087;-78
2021/10/09 08:45:57;;;;;;;32.60;21.20;;;9.40;99.70;;;;;;5033904;28;20018;-77
2021/10/09 08:48:27;;;;;;;29.45;17.75;;;9.50;99.30;;;;;;5030527;28;20030;-76
2021/10/09 08:50:57;;;;;;;30.40;19.23;;;9.70;99.60;;;;;;5021981;28;20017;-77
2021/10/09 08:53:39;;;;;;;31.55;20.33;;;10.00;98.90;;;;;;5031104;28;20132;-78
2021/10/09 08:56:05;;;;;;;35.25;22.15;;;10.20;97.70;;;;;;5028425;28;20057;-78
2021/10/09 08:58:34;;;;;;;35.05;22.13;;;10.20;95.80;;;;;;5027329;28;20089;-76
2021/10/09 09:01:17;;;;;;;33.63;22.05;;;10.00;96.30;;;;;;5020647;28;20534;-76
2021/10/09 09:07:17;;;;;;;32.83;21.30;;;9.90;97.00;;;;;;4977322;28;20065;-76
2021/10/09 09:26:35;;;;;;;34.10;19.63;;;10.60;96.90;;;;;;4993171;28;20072;-77
2021/10/09 09:40:17;;;;;;;29.15;17.88;;;10.80;94.50;;;;;;5033436;28;20025;-77
2021/10/09 09:42:46;;;;;;;30.52;19.13;;;11.10;94.60;;;;;;5018879;28;20121;-77
2021/10/09 09:45:20;;;;;;;33.85;20.65;;;11.30;92.90;;;;;;5011322;28;20048;-77
2021/10/09 09:47:46;;;;;;;32.30;20.15;;;11.50;92.30;;;;;;5002109;28;20025;-77
2021/10/09 09:50:13;;;;;;;31.65;19.90;;;12.00;91.60;;;;;;5029299;28;20029;-77
2021/10/09 09:52:44;;;;;;;31.42;19.77;;;12.20;90.30;;;;;;5038789;28;20032;-78
2021/10/09 09:55:12;;;;;;;26.33;17.50;;;12.10;90.70;;;;;;5018403;28;20033;-77
2021/10/09 09:57:39;;;;;;;27.38;18.38;;;12.20;90.90;;;;;;5035283;28;20025;-76
2021/10/09 10:00:07;;;;;;;26.45;16.95;;;12.30;90.00;;;;;;5035855;28;20030;-76
2021/10/09 10:02:44;;;;;;;28.23;16.08;;;12.30;89.80;;;;;;5036641;28;20496;-77
2021/10/09 10:05:10;;;;;;;26.17;18.17;;;12.60;90.20;;;;;;5034807;28;20397;-77
2021/10/09 10:07:37;;;;;;;31.15;18.88;;;12.90;87.30;;;;;;5015894;28;20088;-77
2021/10/09 10:10:04;;;;;;;32.83;18.50;;;12.90;85.70;;;;;;5017088;28;20091;-77
2021/10/09 10:12:30;;;;;;;24.83;17.23;;;13.10;86.70;;;;;;5016603;28;20041;-78
2021/10/09 10:14:58;;;;;;;26.58;17.52;;;13.70;86.30;;;;;;5017233;28;20037;-79
2021/10/09 10:17:36;;;;;;;39.38;20.45;;;14.40;82.10;;;;;;5027868;28;20065;-77
2021/10/09 10:20:02;;;;;;;30.73;20.27;;;14.90;77.30;;;;;;5025987;28;20026;-77
2021/10/09 10:22:34;;;;;;;30.20;20.25;;;14.70;77.10;;;;;;5035375;28;20094;-77
2021/10/09 10:25:05;;;;;;;31.45;19.65;;;14.60;78.20;;;;;;5035928;28;20018;-78
2021/10/09 10:27:31;;;;;;;28.13;17.30;;;14.60;78.60;;;;;;5035907;28;20038;-77
2021/10/09 10:30:15;;;;;;;26.35;15.02;;;14.50;75.90;;;;;;5035842;28;20026;-76
2021/10/09 10:33:02;;;;;;;28.48;19.15;;;14.80;77.60;;;;;;5017719;28;20029;-76
2021/10/09 10:35:34;;;;;;;29.30;17.67;;;14.90;74.80;;;;;;5024624;28;20466;-76
2021/10/09 10:38:07;;;;;;;26.20;19.27;;;15.00;74.80;;;;;;5000836;28;20128;-77
2021/10/09 10:41:03;;;;;;;31.52;20.15;;;14.70;73.90;;;;;;5015036;28;20393;-77
2021/10/09 10:43:34;;;;;;;35.55;20.38;;;14.20;75.80;;;;;;5015391;28;20034;-79
2021/10/09 10:46:05;;;;;;;33.95;20.38;;;13.90;76.30;;;;;;5014798;28;20018;-76
2021/10/09 10:54:33;;;;;;;31.88;19.50;;;13.00;80.60;;;;;;5034302;28;20504;-77
2021/10/09 10:56:59;;;;;;;25.05;17.83;;;12.70;82.10;;;;;;5018570;28;20025;-80
2021/10/09 10:59:54;;;;;;;25.90;18.27;;;12.40;83.10;;;;;;5040979;28;20170;-77
2021/10/09 11:02:24;;;;;;;26.55;17.42;;;12.20;83.60;;;;;;5037523;28;20086;-77
2021/10/09 11:05:02;;;;;;;25.77;17.52;;;12.10;85.50;;;;;;5038808;28;20025;-76
2021/10/09 11:07:38;;;;;;;25.30;17.73;;;12.30;84.30;;;;;;5031369;28;20032;-77
2021/10/09 11:10:16;;;;;;;24.88;15.23;;;12.50;82.90;;;;;;5013527;28;20183;-76
2021/10/09 11:12:44;;;;;;;22.83;15.38;;;12.60;82.80;;;;;;5014239;28;20123;-77
2021/10/09 11:15:19;;;;;;;30.38;17.25;;;13.00;82.90;;;;;;5014291;28;20061;-77
2021/10/09 11:18:08;;;;;;;24.27;16.77;;;13.30;80.20;;;;;;5019688;28;20080;-78
2021/10/09 11:20:38;;;;;;;24.77;15.82;;;13.30;78.70;;;;;;5026745;28;20025;-77
2021/10/09 11:23:11;;;;;;;22.88;14.88;;;13.40;78.50;;;;;;5034301;28;20018;-78
2021/10/09 11:25:47;;;;;;;23.95;15.15;;;13.40;77.20;;;;;;5017621;28;20029;-76
2021/10/09 11:28:32;;;;;;;24.05;14.80;;;13.40;76.50;;;;;;5034954;28;20470;-78
2021/10/09 11:30:58;;;;;;;23.50;15.23;;;13.60;76.30;;;;;;5035281;28;20021;-77
2021/10/09 11:33:26;;;;;;;22.67;15.30;;;13.50;75.00;;;;;;5016619;28;20367;-78
2021/10/09 11:35:53;;;;;;;20.75;14.82;;;13.20;76.00;;;;;;5033770;28;20021;-78
2021/10/09 11:38:22;;;;;;;20.98;13.45;;;13.10;77.00;;;;;;5034309;28;20022;-77
2021/10/09 11:40:54;;;;;;;21.05;14.13;;;13.30;76.90;;;;;;5018448;28;20030;-77
2021/10/09 11:46:03;;;;;;;23.95;15.15;;;13.60;74.80;;;;;;5017630;28;20113;-78
2021/10/09 11:54:24;;;;;;;18.52;11.98;;;13.70;74.60;;;;;;5024803;28;20087;-78
2021/10/09 11:56:50;;;;;;;19.63;11.95;;;13.70;73.00;;;;;;5037324;28;20026;-77
2021/10/09 11:59:37;;;;;;;20.30;12.55;;;13.70;73.30;;;;;;5035945;28;20469;-77
2021/10/09 12:02:03;;;;;;;19.35;12.30;;;13.70;73.00;;;;;;5034266;28;20022;-77
2021/10/09 12:04:29;;;;;;;21.90;13.15;;;13.70;73.40;;;;;;5035140;28;20472;-76
2021/10/09 12:07:01;;;;;;;20.98;12.02;;;13.80;73.60;;;;;;5026709;28;20040;-78
2021/10/09 12:09:34;;;;;;;25.63;13.75;;;14.00;73.30;;;;;;5015641;28;20029;-78
2021/10/09 12:12:19;;;;;;;21.55;12.43;;;14.10;71.70;;;;;;5031291;28;20037;-78
2021/10/09 12:14:46;;;;;;;21.67;12.48;;;14.10;72.70;;;;;;5016650;28;20028;-78
2021/10/09 12:17:13;;;;;;;20.85;13.10;;;14.10;72.40;;;;;;5016211;28;20136;-77
2021/10/09 12:19:39;;;;;;;20.48;12.07;;;14.20;71.90;;;;;;5013696;28;20553;-78
2021/10/09 12:22:12;;;;;;;21.55;12.73;;;14.20;71.90;;;;;;5015419;28;20034;-78
2021/10/09 12:24:46;;;;;;;22.73;12.35;;;14.20;72.50;;;;;;5014649;28;20149;-78
2021/10/09 12:27:18;;;;;;;20.25;11.23;;;14.30;72.10;;;;;;4995333;28;20034;-75
2021/10/09 12:30:09;;;;;;;17.77;11.75;;;14.40;72.70;;;;;;5012662;28;20033;-76
2021/10/09 12:32:40;;;;;;;19.38;10.75;;;14.60;71.60;;;;;;5011657;28;20033;-75
2021/10/09 12:35:14;;;;;;;21.48;11.93;;;14.50;70.90;;;;;;5012504;28;20498;-75
2021/10/09 12:37:59;;;;;;;20.50;10.73;;;14.50;71.10;;;;;;5011989;28;20081;-76
2021/10/09 12:40:28;;;;;;;16.70;11.13;;;14.60;71.30;;;;;;5012194;28;20064;-76
2021/10/09 12:42:56;;;;;;;19.92;11.27;;;14.30;71.50;;;;;;5012117;28;20022;-77
2021/10/09 12:45:24;;;;;;;17.88;11.18;;;14.20;71.90;;;;;;5012455;28;20495;-77
2021/10/09 12:47:54;;;;;;;21.10;11.50;;;14.10;71.50;;;;;;5014501;28;20022;-78
2021/10/09 12:50:20;;;;;;;15.98;9.32;;;14.00;72.50;;;;;;5015738;28;20488;-78
2021/10/09 12:52:46;;;;;;;19.25;10.15;;;14.30;73.10;;;;;;5013429;28;20147;-78
2021/10/09 12:55:14;;;;;;;15.77;9.63;;;14.80;70.30;;;;;;5014115;28;20092;-77
2021/10/09 12:57:51;;;;;;;18.52;9.38;;;15.30;69.00;;;;;;5013881;28;20018;-78
2021/10/09 13:00:18;;;;;;;14.88;8.57;;;15.70;67.50;;;;;;5011930;28;20047;-77
2021/10/09 13:02:44;;;;;;;16.05;8.65;;;16.20;64.30;;;;;;5012239;28;20025;-76
2021/10/09 13:05:10;;;;;;;14.07;7.97;;;16.50;62.90;;;;;;5012819;28;20076;-77
2021/10/09 13:07:37;;;;;;;13.02;8.93;;;16.60;62.20;;;;;;5012585;28;20110;-78
2021/10/09 13:10:18;;;;;;;20.70;9.30;;;16.70;61.30;;;;;;5038813;23;20223;-85
2021/10/09 13:12:46;;;;;;;16.02;9.52;;;16.60;61.20;;;;;;4996675;28;20038;-85
2021/10/09 13:15:17;;;;;;;15.25;9.38;;;16.30;61.90;;;;;;5002805;28;20057;-85
2021/10/09 13:17:54;;;;;;;13.88;8.02;;;16.10;62.70;;;;;;5021601;28;20073;-85
2021/10/09 13:20:20;;;;;;;13.75;8.52;;;15.70;64.30;;;;;;5006740;28;20022;-85
2021/10/09 13:22:46;;;;;;;13.63;8.20;;;15.40;64.90;;;;;;5003575;28;20486;-84
2021/10/09 13:25:12;;;;;;;21.65;9.30;;;15.10;65.00;;;;;;5003384;28;20101;-84
2021/10/09 13:27:38;;;;;;;12.07;8.00;;;14.90;65.80;;;;;;5005817;28;20061;-85
2021/10/09 13:30:04;;;;;;;18.83;8.40;;;14.70;66.90;;;;;;4999876;28;20030;-84
2021/10/09 13:32:30;;;;;;;11.88;7.55;;;14.70;66.30;;;;;;5004220;28;20180;-84
2021/10/09 13:34:57;;;;;;;11.38;6.65;;;14.80;64.80;;;;;;5004538;28;20027;-85
2021/10/09 13:37:25;;;;;;;15.82;7.25;;;14.80;65.40;;;;;;5008716;28;20093;-85
2021/10/09 13:39:56;;;;;;;16.27;7.88;;;15.00;64.00;;;;;;5029697;28;20037;-82
2021/10/09 13:42:24;;;;;;;14.53;6.87;;;15.10;63.10;;;;;;5016742;28;20062;-83
2021/10/09 13:44:50;;;;;;;13.50;6.80;;;15.20;62.40;;;;;;5013770;28;20034;-84
2021/10/09 13:47:16;;;;;;;12.40;7.00;;;15.30;62.90;;;;;;5020274;28;20078;-84
2021/10/09 13:49:42;;;;;;;14.70;7.13;;;15.40;62.20;;;;;;5014502;28;20026;-84
2021/10/09 13:52:08;;;;;;;12.80;7.57;;;15.50;61.40;;;;;;4986294;28;20022;-83
2021/10/09 13:54:34;;;;;;;13.10;6.95;;;15.50;61.60;;;;;;5005288;28;20025;-83
2021/10/09 13:57:00;;;;;;;14.45;7.55;;;15.60;61.40;;;;;;5004264;28;20534;-83
2021/10/09 13:59:26;;;;;;;12.45;7.05;;;15.60;61.20;;;;;;4998549;28;20030;-84
2021/10/09 14:01:51;;;;;;;15.82;7.07;;;15.40;62.00;;;;;;5023846;28;20025;-85
2021/10/09 14:04:17;;;;;;;11.75;7.35;;;15.30;62.70;;;;;;5022893;28;20029;-85
2021/10/09 14:06:43;;;;;;;10.52;7.07;;;15.40;63.20;;;;;;5006566;28;20080;-86
2021/10/09 14:09:09;;;;;;;13.70;6.90;;;15.50;63.60;;;;;;4998060;28;20030;-85
2021/10/09 14:11:35;;;;;;;14.10;7.75;;;15.60;64.00;;;;;;5005290;28;20044;-83
2021/10/09 14:14:01;;;;;;;13.82;8.68;;;15.70;63.70;;;;;;5004631;28;20054;-85
2021/10/09 14:16:27;;;;;;;11.65;7.50;;;15.70;63.80;;;;;;4987111;28;20398;-84
2021/10/09 14:18:53;;;;;;;17.45;7.70;;;15.60;64.60;;;;;;5006082;28;20070;-82
2021/10/09 14:21:19;;;;;;;15.15;8.25;;;15.40;64.80;;;;;;5011261;28;20419;-83
2021/10/09 14:23:45;;;;;;;13.00;8.10;;;15.30;65.40;;;;;;5001626;28;20026;-84
2021/10/09 14:26:11;;;;;;;13.90;7.75;;;15.30;65.30;;;;;;4985059;28;20100;-84
2021/10/09 14:28:36;;;;;;;12.65;7.65;;;15.10;65.20;;;;;;5002237;28;20026;-85
2021/10/09 14:31:02;;;;;;;16.00;7.70;;;15.10;65.20;;;;;;5002596;28;20457;-85
2021/10/09 14:33:28;;;;;;;17.00;8.63;;;15.00;65.20;;;;;;5023112;28;20029;-84
2021/10/09 14:35:57;;;;;;;19.60;7.05;;;15.00;65.30;;;;;;5022157;28;20415;-83
2021/10/09 14:38:23;;;;;;;14.82;6.95;;;14.90;65.40;;;;;;5002528;28;20490;-85
2021/10/09 14:40:49;;;;;;;12.93;6.70;;;14.90;64.80;;;;;;5007424;28;20085;-85
2021/10/09 14:43:14;;;;;;;12.90;6.72;;;14.90;64.60;;;;;;5000749;28;20025;-85
2021/10/09 14:45:43;;;;;;;10.73;6.15;;;15.00;64.00;;;;;;5002048;28;20033;-85
2021/10/09 14:48:19;;;;;;;10.68;5.55;;;14.70;64.80;;;;;;5000200;28;20081;-83
2021/10/09 14:53:39;;;;;;;14.05;8.43;;;14.60;66.20;;;;;;5021864;28;20026;-83
2021/10/09 15:01:04;;;;;;;14.65;7.50;;;14.70;66.60;;;;;;5012580;28;20022;-83
2021/10/09 15:18:08;;;;;;;18.65;8.07;;;13.70;71.10;;;;;;5008889;28;20103;-82
2021/10/09 15:20:34;;;;;;;15.23;8.93;;;13.60;71.80;;;;;;5008333;28;20483;-84
2021/10/09 15:23:01;;;;;;;12.90;7.60;;;13.50;72.40;;;;;;5003214;28;20145;-83
2021/10/09 15:28:40;;;;;;;13.55;7.13;;;13.40;72.70;;;;;;4995362;28;20037;-83